Heafford Junction, Wisconsin
Current Conditions -  °F | °C
As of 9:55 PM on Saturday 22 Nov 2014 (Local Time) from KTKV Reporting Station
Haze Haze  
Wind Chill: 34°   Ceiling: 200
Heat Index: 34°   Visibility: 1.2mi
Dew Point: 33°   Wind: 0mph
Humidity: 96%   Direction: NA
Pressure: 29.68"   Gusts: NA
Location:  45.55°N, 89.72°W
Report Text: KTKV 230355Z AUTO 00000KT 1 1/4SM BR OVC002 01/01 A2968 RMK AO2 T00100005
Loading
Personal Weather Stations






























Interactive Weather Map New forecast layout! Learn more

10-Day Weather Forecast

Advertisements
Track Severe Weather on mobile